createdAt,value
2019-04-25T00:00:22.532Z,0.00
2019-04-25T00:01:22.593Z,0.00
2019-04-25T00:02:22.713Z,0.00
2019-04-25T00:03:22.737Z,0.00
2019-04-25T00:04:22.531Z,0.00
2019-04-25T00:05:22.479Z,0.00
2019-04-25T00:06:23.055Z,0.00
2019-04-25T00:07:22.448Z,0.00
2019-04-25T00:08:22.501Z,0.00
2019-04-25T00:09:22.599Z,0.00
2019-04-25T00:10:22.583Z,0.00
2019-04-25T00:11:22.406Z,0.00
2019-04-25T00:12:22.422Z,0.00
2019-04-25T00:13:23.194Z,0.00
2019-04-25T00:14:22.692Z,0.00
2019-04-25T00:15:23.106Z,0.00
2019-04-25T00:16:22.355Z,0.00
2019-04-25T00:17:22.355Z,0.00
2019-04-25T00:18:23.365Z,0.00
2019-04-25T00:19:22.479Z,0.00
2019-04-25T00:20:22.314Z,0.00
2019-04-25T00:21:22.297Z,0.00
2019-04-25T00:22:22.588Z,0.00
2019-04-25T00:23:22.285Z,0.00
2019-04-25T00:24:23.839Z,0.00
2019-04-25T00:25:22.314Z,0.00
2019-04-25T00:26:22.244Z,0.00
2019-04-25T00:27:23.714Z,0.00
2019-04-25T00:28:22.570Z,0.00
2019-04-25T00:29:22.239Z,0.00
2019-04-25T00:30:22.620Z,0.00
2019-04-25T00:31:22.192Z,0.00
2019-04-25T00:32:28.756Z,0.00
2019-04-25T00:33:22.165Z,0.00
2019-04-25T00:34:22.524Z,0.00
2019-04-25T00:35:22.146Z,0.00
2019-04-25T00:36:22.127Z,0.00
2019-04-25T00:37:22.614Z,0.00
2019-04-25T00:38:22.435Z,0.00
2019-04-25T00:39:22.094Z,0.00
2019-04-25T00:40:22.451Z,0.00
2019-04-25T00:41:22.273Z,0.00
2019-04-25T00:42:23.174Z,0.00
2019-04-25T00:43:22.100Z,0.00
2019-04-25T00:44:22.083Z,0.00
2019-04-25T00:45:22.343Z,0.00
2019-04-25T00:46:22.590Z,0.00
2019-04-25T00:47:22.137Z,0.00
2019-04-25T00:48:22.460Z,0.00
2019-04-25T00:49:23.577Z,0.00
2019-04-25T00:50:22.052Z,0.00
2019-04-25T00:51:21.971Z,0.00
2019-04-25T00:52:22.864Z,0.00
2019-04-25T00:53:21.969Z,0.00
2019-04-25T00:54:22.650Z,0.00
2019-04-25T00:55:28.494Z,0.00
2019-04-25T00:56:23.164Z,0.00
2019-04-25T00:57:22.112Z,0.00
2019-04-25T00:58:21.895Z,0.00
2019-04-25T00:59:22.218Z,0.00
2019-04-25T01:00:21.868Z,0.00
2019-04-25T01:01:22.078Z,0.00
2019-04-25T01:02:22.481Z,0.00
2019-04-25T01:03:22.536Z,0.00
2019-04-25T01:04:21.880Z,0.00
2019-04-25T01:05:21.820Z,0.00
2019-04-25T01:06:22.072Z,0.00
2019-04-25T01:07:22.403Z,0.00
2019-04-25T01:08:22.056Z,0.00
2019-04-25T01:09:22.286Z,0.00
2019-04-25T01:10:23.087Z,0.00
2019-04-25T01:11:21.777Z,0.00
2019-04-25T01:12:21.867Z,0.00
2019-04-25T01:13:22.344Z,0.00
2019-04-25T01:14:22.193Z,0.00
2019-04-25T01:15:22.063Z,0.00
2019-04-25T01:16:22.093Z,0.00
2019-04-25T01:17:22.900Z,0.00
2019-04-25T01:18:23.152Z,0.00
2019-04-25T01:19:23.487Z,0.00
2019-04-25T01:20:23.916Z,0.00
2019-04-25T01:21:21.787Z,0.00
2019-04-25T01:22:23.195Z,0.00
2019-04-25T01:23:21.611Z,0.00
2019-04-25T01:24:24.022Z,0.00
2019-04-25T01:25:21.598Z,0.00
2019-04-25T01:26:21.758Z,0.00
2019-04-25T01:27:21.568Z,0.00
2019-04-25T01:28:21.554Z,0.00
2019-04-25T01:29:21.536Z,0.00
2019-04-25T01:30:21.529Z,0.00
2019-04-25T01:31:21.654Z,0.00
2019-04-25T01:32:21.647Z,0.00
2019-04-25T01:33:21.494Z,0.00
2019-04-25T01:34:21.496Z,0.00
2019-04-25T01:35:23.770Z,0.00
2019-04-25T01:36:23.193Z,0.00
2019-04-25T01:37:21.465Z,0.00
2019-04-25T01:38:21.466Z,0.00
2019-04-25T01:39:21.430Z,0.00
2019-04-25T01:40:21.564Z,0.00
2019-04-25T01:41:21.417Z,0.00
2019-04-25T01:42:21.411Z,0.00
2019-04-25T01:43:21.411Z,0.00
2019-04-25T01:44:21.378Z,0.00
2019-04-25T01:45:23.963Z,0.00
2019-04-25T01:46:21.563Z,0.00
2019-04-25T01:47:21.347Z,0.00
2019-04-25T01:48:21.459Z,0.00
2019-04-25T01:49:21.320Z,0.00
2019-04-25T01:50:21.320Z,0.00
2019-04-25T01:51:21.300Z,0.00
2019-04-25T01:52:23.437Z,0.00
2019-04-25T01:53:21.292Z,0.00
2019-04-25T01:54:21.274Z,0.00
2019-04-25T01:55:23.395Z,0.00
2019-04-25T01:56:21.242Z,0.00
2019-04-25T01:57:21.522Z,0.00
2019-04-25T01:58:21.595Z,0.00
2019-04-25T01:59:21.224Z,0.00
2019-04-25T02:00:21.208Z,0.00
2019-04-25T02:01:21.186Z,0.00
2019-04-25T02:02:21.173Z,0.00
2019-04-25T02:03:50.426Z,0.00
2019-04-25T02:04:21.179Z,0.00
2019-04-25T02:05:21.210Z,0.00
2019-04-25T02:06:21.146Z,0.00
2019-04-25T02:07:21.178Z,0.00
2019-04-25T02:08:21.494Z,0.00
2019-04-25T02:09:21.105Z,0.00
2019-04-25T02:10:21.224Z,0.00
2019-04-25T02:11:21.098Z,0.00
2019-04-25T02:12:21.058Z,0.00
2019-04-25T02:13:21.224Z,0.00
2019-04-25T02:14:21.046Z,0.00
2019-04-25T02:15:21.215Z,0.00
2019-04-25T02:16:21.026Z,0.00
2019-04-25T02:17:21.198Z,0.00
2019-04-25T02:18:20.994Z,0.00
2019-04-25T02:19:20.985Z,0.00
2019-04-25T02:20:21.153Z,0.00
2019-04-25T02:21:21.182Z,0.00
2019-04-25T02:22:21.082Z,0.00
2019-04-25T02:23:21.121Z,0.00
2019-04-25T02:24:20.968Z,0.00
2019-04-25T02:25:20.919Z,0.00
2019-04-25T02:26:20.932Z,0.00
2019-04-25T02:27:20.905Z,0.00
2019-04-25T02:28:20.905Z,0.00
2019-04-25T02:29:21.064Z,0.00
2019-04-25T02:30:20.868Z,0.00
2019-04-25T02:31:20.855Z,0.00
2019-04-25T02:32:20.854Z,0.00
2019-04-25T02:33:20.835Z,0.00
2019-04-25T02:34:20.852Z,0.00
2019-04-25T02:35:21.059Z,0.00
2019-04-25T02:36:20.802Z,0.00
2019-04-25T02:37:20.868Z,0.00
2019-04-25T02:38:20.779Z,0.00
2019-04-25T02:39:20.760Z,0.00
2019-04-25T02:40:21.071Z,0.00
2019-04-25T02:41:24.808Z,0.00
2019-04-25T02:42:20.733Z,0.00
2019-04-25T02:43:23.908Z,0.00
2019-04-25T02:44:20.710Z,0.00
2019-04-25T02:45:21.227Z,0.00
2019-04-25T02:46:20.714Z,0.00
2019-04-25T02:47:20.708Z,0.00
2019-04-25T02:48:21.153Z,0.00
2019-04-25T02:49:34.901Z,0.00
2019-04-25T02:50:21.655Z,0.00
2019-04-25T02:51:20.636Z,0.00
2019-04-25T02:52:20.634Z,0.00
2019-04-25T02:53:20.613Z,0.00
2019-04-25T02:54:20.930Z,0.00
2019-04-25T02:55:31.082Z,0.00
2019-04-25T02:56:31.266Z,0.00
2019-04-25T02:57:21.675Z,0.00
2019-04-25T02:58:20.587Z,0.00
2019-04-25T02:59:20.546Z,0.00
2019-04-25T03:00:21.102Z,0.00
2019-04-25T03:01:25.137Z,0.00
2019-04-25T03:02:21.509Z,0.00
2019-04-25T03:03:20.509Z,0.00
2019-04-25T03:04:20.494Z,0.00
2019-04-25T03:05:20.490Z,0.00
2019-04-25T03:06:20.674Z,0.00
2019-04-25T03:07:20.482Z,0.00
2019-04-25T03:08:20.460Z,0.00
2019-04-25T03:09:20.459Z,0.00
2019-04-25T03:10:20.456Z,0.00
2019-04-25T03:11:20.556Z,0.00
2019-04-25T03:12:30.529Z,0.00
2019-04-25T03:13:21.417Z,0.00
2019-04-25T03:14:20.404Z,0.00
2019-04-25T03:15:20.362Z,0.00
2019-04-25T03:16:20.359Z,0.00
2019-04-25T03:17:21.344Z,0.00
2019-04-25T03:18:20.532Z,0.00
2019-04-25T03:19:20.333Z,0.00
2019-04-25T03:20:20.317Z,0.00
2019-04-25T03:21:20.321Z,0.00
2019-04-25T03:22:20.292Z,0.00
2019-04-25T03:23:20.608Z,0.00
2019-04-25T03:24:20.553Z,0.00
2019-04-25T03:25:20.253Z,0.00
2019-04-25T03:26:20.337Z,0.00
2019-04-25T03:27:20.535Z,0.00
2019-04-25T03:28:20.342Z,0.00
2019-04-25T03:29:20.792Z,0.00
2019-04-25T03:30:20.758Z,0.00
2019-04-25T03:31:22.828Z,0.00
2019-04-25T03:32:21.496Z,0.00
2019-04-25T03:33:20.204Z,0.00
2019-04-25T03:34:20.947Z,0.00
2019-04-25T03:35:20.507Z,0.00
2019-04-25T03:36:20.134Z,0.00
2019-04-25T03:37:20.509Z,0.00
2019-04-25T03:38:20.141Z,0.00
2019-04-25T03:39:20.117Z,0.00
2019-04-25T03:40:20.107Z,0.00
2019-04-25T03:41:20.106Z,0.00
2019-04-25T03:42:20.078Z,0.00
2019-04-25T03:43:20.305Z,0.00
2019-04-25T03:44:20.049Z,0.00
2019-04-25T03:45:20.593Z,0.00
2019-04-25T03:46:20.031Z,0.00
2019-04-25T03:47:20.107Z,0.00
2019-04-25T03:48:20.019Z,0.00
2019-04-25T03:49:20.826Z,0.00
2019-04-25T03:50:20.215Z,5.62
2019-04-25T03:51:19.977Z,5.62
2019-04-25T03:52:20.321Z,5.62
2019-04-25T03:53:19.972Z,5.62
2019-04-25T03:54:19.944Z,5.62
2019-04-25T03:55:19.934Z,5.62
2019-04-25T03:56:20.167Z,11.25
2019-04-25T03:57:19.911Z,11.25
2019-04-25T03:58:20.008Z,11.25
2019-04-25T03:59:20.122Z,11.25
2019-04-25T04:00:20.121Z,11.25
2019-04-25T04:01:19.868Z,11.25
2019-04-25T04:02:20.088Z,16.88
2019-04-25T04:03:19.865Z,16.88
2019-04-25T04:04:19.826Z,16.88
2019-04-25T04:05:20.235Z,16.88
2019-04-25T04:06:19.807Z,16.88
2019-04-25T04:07:19.823Z,22.50
2019-04-25T04:08:20.271Z,22.50
2019-04-25T04:09:19.796Z,22.50
2019-04-25T04:10:21.214Z,22.50
2019-04-25T04:11:20.166Z,22.50
2019-04-25T04:12:19.780Z,28.12
2019-04-25T04:13:19.798Z,28.12
2019-04-25T04:14:19.803Z,28.12
2019-04-25T04:15:19.910Z,28.12
2019-04-25T04:16:20.187Z,33.75
2019-04-25T04:17:20.011Z,33.75
2019-04-25T04:18:19.761Z,33.75
2019-04-25T04:19:19.950Z,39.38
2019-04-25T04:20:19.675Z,39.38
2019-04-25T04:21:19.643Z,39.38
2019-04-25T04:22:20.234Z,45.00
2019-04-25T04:23:19.652Z,45.00
2019-04-25T04:24:19.608Z,45.00
2019-04-25T04:25:19.712Z,50.62
2019-04-25T04:26:19.667Z,50.62
2019-04-25T04:27:21.173Z,50.62
2019-04-25T04:28:21.627Z,50.62
2019-04-25T04:29:19.564Z,50.62
2019-04-25T04:30:19.540Z,56.25
2019-04-25T04:31:19.526Z,50.62
2019-04-25T04:32:20.833Z,50.62
2019-04-25T04:33:29.809Z,56.25
2019-04-25T04:34:20.631Z,56.25
2019-04-25T04:35:19.505Z,56.25
2019-04-25T04:36:23.764Z,56.25
2019-04-25T04:37:19.473Z,56.25
2019-04-25T04:38:19.561Z,56.25
2019-04-25T04:39:19.647Z,61.88
2019-04-25T04:40:19.432Z,61.88
2019-04-25T04:41:19.420Z,61.88
2019-04-25T04:42:19.402Z,61.88
2019-04-25T04:43:19.400Z,61.88
2019-04-25T04:44:19.396Z,67.50
2019-04-25T04:45:23.222Z,67.50
2019-04-25T04:46:19.791Z,67.50
2019-04-25T04:47:19.357Z,73.12
2019-04-25T04:48:19.352Z,73.12
2019-04-25T04:49:20.045Z,73.12
2019-04-25T04:50:19.777Z,78.75
2019-04-25T04:51:19.990Z,78.75
2019-04-25T04:52:19.303Z,84.38
2019-04-25T04:53:19.327Z,84.38
2019-04-25T04:54:19.450Z,84.38
2019-04-25T04:55:19.764Z,90.00
2019-04-25T04:56:19.575Z,90.00
2019-04-25T04:57:28.872Z,90.00
2019-04-25T04:58:20.240Z,95.62
2019-04-25T04:59:19.221Z,95.62
2019-04-25T05:00:19.213Z,95.62
2019-04-25T05:01:19.201Z,101.25
2019-04-25T05:02:19.536Z,106.88
2019-04-25T05:03:19.213Z,106.88
2019-04-25T05:04:19.187Z,106.88
2019-04-25T05:05:19.167Z,112.50
2019-04-25T05:06:19.259Z,112.50
2019-04-25T05:07:19.523Z,118.12
2019-04-25T05:08:19.589Z,118.12
2019-04-25T05:09:19.802Z,118.12
2019-04-25T05:10:20.132Z,123.75
2019-04-25T05:11:19.846Z,129.38
2019-04-25T05:12:19.524Z,123.75
2019-04-25T05:13:19.829Z,112.50
2019-04-25T05:14:19.521Z,112.50
2019-04-25T05:15:19.210Z,118.12
2019-04-25T05:16:19.756Z,118.12
2019-04-25T05:17:19.691Z,118.12
2019-04-25T05:18:31.565Z,123.75
2019-04-25T05:19:22.406Z,123.75
2019-04-25T05:20:20.639Z,123.75
2019-04-25T05:21:19.243Z,129.38
2019-04-25T05:22:18.987Z,129.38
2019-04-25T05:23:19.054Z,135.00
2019-04-25T05:24:19.153Z,135.00
2019-04-25T05:25:19.504Z,135.00
2019-04-25T05:26:19.523Z,135.00
2019-04-25T05:27:32.246Z,135.00
2019-04-25T05:28:20.968Z,135.00
2019-04-25T05:29:21.339Z,135.00
2019-04-25T05:30:19.177Z,135.00
2019-04-25T05:31:21.336Z,135.00
2019-04-25T05:32:19.212Z,135.00
2019-04-25T05:33:21.180Z,140.62
2019-04-25T05:34:19.623Z,140.62
2019-04-25T05:35:18.822Z,146.25
2019-04-25T05:36:19.648Z,151.88
2019-04-25T05:37:19.645Z,163.12
2019-04-25T05:38:18.894Z,163.12
2019-04-25T05:39:19.452Z,157.50
2019-04-25T05:40:20.064Z,157.50
2019-04-25T05:41:18.767Z,163.12
2019-04-25T05:42:20.305Z,168.75
2019-04-25T05:43:18.777Z,174.38
2019-04-25T05:44:18.787Z,219.38
2019-04-25T05:45:19.850Z,219.38
2019-04-25T05:46:19.055Z,225.00
2019-04-25T05:47:20.502Z,230.62
2019-04-25T05:48:19.010Z,241.88
2019-04-25T05:49:19.296Z,247.50
2019-04-25T05:50:19.843Z,253.12
2019-04-25T05:51:19.538Z,264.38
2019-04-25T05:52:20.326Z,270.00
2019-04-25T05:53:19.755Z,275.62
2019-04-25T05:54:20.601Z,281.25
2019-04-25T05:55:20.004Z,286.88
2019-04-25T05:56:18.956Z,298.12
2019-04-25T05:57:18.673Z,303.75
2019-04-25T05:58:18.771Z,315.00
2019-04-25T05:59:19.474Z,326.25
2019-04-25T06:00:19.043Z,337.50
2019-04-25T06:01:18.881Z,348.75
2019-04-25T06:02:19.435Z,354.38
2019-04-25T06:03:18.807Z,360.00
2019-04-25T06:04:25.078Z,371.25
2019-04-25T06:05:19.043Z,382.50
2019-04-25T06:06:19.218Z,399.38
2019-04-25T06:07:19.350Z,416.25
2019-04-25T06:08:19.380Z,438.75
2019-04-25T06:09:19.311Z,444.38
2019-04-25T06:10:19.480Z,455.62
2019-04-25T06:11:19.579Z,461.25
2019-04-25T06:12:18.549Z,461.25
2019-04-25T06:13:18.407Z,450.00
2019-04-25T06:14:18.436Z,444.38
2019-04-25T06:15:18.463Z,444.38
2019-04-25T06:16:18.712Z,450.00
2019-04-25T06:17:19.352Z,472.50
2019-04-25T06:18:19.724Z,495.00
2019-04-25T06:19:20.629Z,506.25
2019-04-25T06:20:19.975Z,511.88
2019-04-25T06:21:21.378Z,523.12
2019-04-25T06:22:18.435Z,523.12
2019-04-25T06:23:18.970Z,534.38
2019-04-25T06:24:19.134Z,551.25
2019-04-25T06:25:21.136Z,556.88
2019-04-25T06:26:26.731Z,562.50
2019-04-25T06:27:19.717Z,573.75
2019-04-25T06:28:18.266Z,585.00
2019-04-25T06:29:18.308Z,596.25
2019-04-25T06:30:18.515Z,596.25
2019-04-25T06:31:19.759Z,466.88
2019-04-25T06:32:18.287Z,444.38
2019-04-25T06:33:18.729Z,466.88
2019-04-25T06:34:19.846Z,438.75
2019-04-25T06:35:18.166Z,438.75
2019-04-25T06:36:18.301Z,495.00
2019-04-25T06:37:18.131Z,478.12
2019-04-25T06:38:18.122Z,495.00
2019-04-25T06:39:18.113Z,416.25
2019-04-25T06:40:18.101Z,568.12
2019-04-25T06:41:18.260Z,523.12
2019-04-25T06:42:19.209Z,534.38
2019-04-25T06:43:18.106Z,466.88
2019-04-25T06:44:18.098Z,618.75
2019-04-25T06:45:18.057Z,601.88
2019-04-25T06:46:18.127Z,630.00
2019-04-25T06:47:18.178Z,675.00
2019-04-25T06:48:18.357Z,691.88
2019-04-25T06:49:18.002Z,540.00
2019-04-25T06:50:17.987Z,489.38
2019-04-25T06:51:17.979Z,483.75
2019-04-25T06:52:18.378Z,399.38
2019-04-25T06:53:18.218Z,483.75
2019-04-25T06:54:17.994Z,995.62
2019-04-25T06:55:17.951Z,1411.88
2019-04-25T06:56:17.931Z,2036.25
2019-04-25T06:57:17.913Z,1996.88
2019-04-25T06:58:17.944Z,2086.88
2019-04-25T06:59:18.130Z,2216.25
2019-04-25T07:00:18.114Z,2278.12
2019-04-25T07:01:18.556Z,2278.12
2019-04-25T07:02:17.879Z,2238.75
2019-04-25T07:03:18.203Z,2266.88
2019-04-25T07:04:17.850Z,2272.50
2019-04-25T07:05:26.545Z,2199.38
2019-04-25T07:06:18.915Z,2328.75
2019-04-25T07:07:17.815Z,2289.38
2019-04-25T07:08:17.800Z,2430.00
2019-04-25T07:09:17.794Z,2503.12
2019-04-25T07:10:18.142Z,2452.50
2019-04-25T07:11:17.799Z,2570.62
2019-04-25T07:12:17.772Z,2649.38
2019-04-25T07:13:17.777Z,2559.38
2019-04-25T07:14:17.761Z,2542.50
2019-04-25T07:15:17.756Z,2638.12
2019-04-25T07:16:18.169Z,2604.38
2019-04-25T07:17:17.935Z,2576.25
2019-04-25T07:18:17.889Z,2643.75
2019-04-25T07:19:17.784Z,2430.00
2019-04-25T07:20:17.945Z,2508.75
2019-04-25T07:21:17.751Z,2643.75
2019-04-25T07:22:18.302Z,2604.38
2019-04-25T07:23:17.627Z,2643.75
2019-04-25T07:24:17.690Z,2677.50
2019-04-25T07:25:17.628Z,2531.25
2019-04-25T07:26:18.321Z,2632.50
2019-04-25T07:27:18.080Z,2660.62
2019-04-25T07:28:24.173Z,2632.50
2019-04-25T07:29:18.573Z,2638.12
2019-04-25T07:30:27.269Z,2671.88
2019-04-25T07:31:18.695Z,2688.75
2019-04-25T07:32:17.556Z,2340.00
2019-04-25T07:33:17.599Z,2610.00
2019-04-25T07:34:17.540Z,2655.00
2019-04-25T07:35:17.591Z,2632.50
2019-04-25T07:36:17.784Z,2716.88
2019-04-25T07:37:17.515Z,2716.88
2019-04-25T07:38:17.500Z,2536.88
2019-04-25T07:39:17.487Z,2334.38
2019-04-25T07:40:17.479Z,2514.38
2019-04-25T07:41:17.681Z,2435.62
2019-04-25T07:42:17.602Z,2553.75
2019-04-25T07:43:17.421Z,2598.75
2019-04-25T07:44:17.555Z,2610.00
2019-04-25T07:45:17.500Z,2846.25
2019-04-25T07:46:17.416Z,2919.38
2019-04-25T07:47:17.777Z,2806.88
2019-04-25T07:48:17.618Z,2880.00
2019-04-25T07:49:17.388Z,2919.38
2019-04-25T07:50:17.378Z,2958.75
2019-04-25T07:51:17.338Z,3110.62
2019-04-25T07:52:17.463Z,3150.00
2019-04-25T07:53:20.537Z,2925.00
2019-04-25T07:54:17.317Z,2975.62
2019-04-25T07:55:17.304Z,2986.88
2019-04-25T07:56:17.280Z,2835.00
2019-04-25T07:57:17.655Z,2936.25
2019-04-25T07:58:17.263Z,3031.88
2019-04-25T07:59:17.460Z,2964.38
2019-04-25T08:00:17.238Z,3082.50
2019-04-25T08:01:17.223Z,3195.00
2019-04-25T08:02:17.218Z,3166.88
2019-04-25T08:03:17.225Z,3088.12
2019-04-25T08:04:17.200Z,3031.88
2019-04-25T08:05:17.402Z,3172.50
2019-04-25T08:06:17.174Z,3228.75
2019-04-25T08:07:17.193Z,2925.00
2019-04-25T08:08:17.617Z,2975.62
2019-04-25T08:09:17.229Z,2958.75
2019-04-25T08:10:17.135Z,3020.62
2019-04-25T08:11:17.648Z,2975.62
2019-04-25T08:12:17.118Z,3127.50
2019-04-25T08:13:17.133Z,3217.50
2019-04-25T08:14:18.680Z,3217.50
2019-04-25T08:15:17.154Z,3301.88
2019-04-25T08:16:17.085Z,3183.75
2019-04-25T08:17:17.206Z,3015.00
2019-04-25T08:18:17.067Z,2891.25
2019-04-25T08:19:17.040Z,3105.00
2019-04-25T08:20:17.050Z,2930.62
2019-04-25T08:21:17.026Z,2919.38
2019-04-25T08:22:17.168Z,2953.12
2019-04-25T08:23:18.391Z,2835.00
2019-04-25T08:24:17.036Z,2891.25
2019-04-25T08:25:16.986Z,3335.62
2019-04-25T08:26:17.115Z,3465.00
2019-04-25T08:27:17.183Z,3346.88
2019-04-25T08:28:17.002Z,3037.50
2019-04-25T08:29:17.138Z,3020.62
2019-04-25T08:30:16.946Z,2998.12
2019-04-25T08:31:16.939Z,3223.12
2019-04-25T08:32:16.908Z,3369.38
2019-04-25T08:33:17.116Z,3290.62
2019-04-25T08:34:16.894Z,3037.50
2019-04-25T08:35:17.176Z,3060.00
2019-04-25T08:36:16.882Z,3307.50
2019-04-25T08:37:20.948Z,3178.12
2019-04-25T08:38:16.849Z,3172.50
2019-04-25T08:39:17.138Z,2615.62
2019-04-25T08:40:17.149Z,3166.88
2019-04-25T08:41:16.860Z,3150.00
2019-04-25T08:42:16.986Z,2812.50
2019-04-25T08:43:16.923Z,2784.38
2019-04-25T08:44:16.789Z,2896.88
2019-04-25T08:45:17.297Z,2311.88
2019-04-25T08:46:16.756Z,2205.00
2019-04-25T08:47:16.755Z,2356.88
2019-04-25T08:48:16.748Z,2120.62
2019-04-25T08:49:16.797Z,2469.38
2019-04-25T08:50:26.687Z,2806.88
2019-04-25T08:51:18.164Z,2570.62
2019-04-25T08:52:16.924Z,2272.50
2019-04-25T08:53:16.695Z,2081.25
2019-04-25T08:54:16.702Z,1805.62
2019-04-25T08:55:16.681Z,1546.88
2019-04-25T08:56:16.880Z,950.62
2019-04-25T08:57:16.875Z,742.50
2019-04-25T08:58:17.090Z,725.62
2019-04-25T08:59:16.644Z,759.38
2019-04-25T09:00:16.628Z,1186.88
2019-04-25T09:01:16.607Z,1535.62
2019-04-25T09:02:16.658Z,2148.75
2019-04-25T09:03:16.709Z,2250.00
2019-04-25T09:04:16.917Z,3183.75
2019-04-25T09:05:16.703Z,3453.75
2019-04-25T09:06:16.566Z,3290.62
2019-04-25T09:07:16.774Z,3436.88
2019-04-25T09:08:16.537Z,3639.38
2019-04-25T09:09:16.532Z,3645.00
2019-04-25T09:10:16.551Z,3718.12
2019-04-25T09:11:16.616Z,3819.38
2019-04-25T09:12:16.502Z,3757.50
2019-04-25T09:13:16.692Z,3577.50
2019-04-25T09:14:16.567Z,3521.25
2019-04-25T09:15:16.756Z,3515.62
2019-04-25T09:16:16.470Z,3476.25
2019-04-25T09:17:16.471Z,3335.62
2019-04-25T09:18:16.441Z,3318.75
2019-04-25T09:19:16.443Z,3313.12
2019-04-25T09:20:16.427Z,3403.12
2019-04-25T09:21:17.073Z,3526.88
2019-04-25T09:22:16.400Z,3549.38
2019-04-25T09:23:16.396Z,3487.50
2019-04-25T09:24:16.431Z,3262.50
2019-04-25T09:25:18.550Z,3116.25
2019-04-25T09:26:16.357Z,3380.62
2019-04-25T09:27:16.694Z,3290.62
2019-04-25T09:28:16.657Z,3268.12
2019-04-25T09:29:19.603Z,3375.00
2019-04-25T09:30:16.338Z,3245.62
2019-04-25T09:31:16.486Z,3138.75
2019-04-25T09:32:16.935Z,3099.38
2019-04-25T09:33:57.425Z,3161.25
2019-04-25T09:39:25.467Z,3768.75
2019-04-25T09:40:24.117Z,3645.00
2019-04-25T09:41:24.004Z,3600.00
2019-04-25T09:42:23.847Z,3583.12
2019-04-25T09:43:23.635Z,3768.75
2019-04-25T09:44:24.191Z,3926.25
2019-04-25T09:50:24.471Z,3954.38
2019-04-25T09:51:23.917Z,3881.25
2019-04-25T09:52:24.365Z,3830.62
2019-04-25T09:53:25.957Z,3746.25
2019-04-25T09:54:23.941Z,3048.75
2019-04-25T09:55:24.197Z,2728.12
2019-04-25T09:56:24.198Z,2992.50
2019-04-25T09:57:24.155Z,3403.12
2019-04-25T09:58:23.916Z,3898.12
2019-04-25T09:59:27.915Z,3774.38
2019-04-25T10:00:24.921Z,3718.12
2019-04-25T10:01:24.059Z,3706.88
2019-04-25T10:02:25.485Z,3695.62
2019-04-25T10:03:24.160Z,4050.00
2019-04-25T10:04:24.098Z,4376.25
2019-04-25T10:05:23.976Z,4342.50
2019-04-25T10:06:24.144Z,4106.25
2019-04-25T10:07:24.194Z,3217.50
2019-04-25T10:08:24.263Z,3639.38
2019-04-25T10:09:23.995Z,3588.75
2019-04-25T10:10:24.165Z,3650.62
2019-04-25T10:11:23.892Z,3650.62
2019-04-25T10:12:23.731Z,3802.50
2019-04-25T10:13:25.209Z,3768.75
2019-04-25T10:14:24.650Z,3853.12
2019-04-25T10:15:24.074Z,4055.62
2019-04-25T10:16:23.685Z,4111.88
2019-04-25T10:17:23.865Z,4291.88
2019-04-25T10:18:23.668Z,4415.62
2019-04-25T10:19:23.864Z,4111.88
2019-04-25T10:20:28.982Z,3898.12
2019-04-25T10:21:23.993Z,4010.62
2019-04-25T10:22:23.773Z,3718.12
2019-04-25T10:23:24.744Z,3015.00
2019-04-25T10:24:23.626Z,2896.88
2019-04-25T10:25:23.641Z,2778.75
2019-04-25T10:26:24.096Z,2896.88
2019-04-25T10:27:24.230Z,3048.75
2019-04-25T10:28:23.592Z,3684.38
2019-04-25T10:29:23.583Z,3892.50
2019-04-25T10:30:25.926Z,4005.00
2019-04-25T10:31:23.915Z,3757.50
2019-04-25T10:32:23.807Z,3712.50
2019-04-25T10:33:24.263Z,4050.00
2019-04-25T10:34:24.198Z,4111.88
2019-04-25T10:35:23.955Z,4185.00
2019-04-25T10:36:24.707Z,4370.62
2019-04-25T10:37:23.516Z,4123.12
2019-04-25T10:38:24.165Z,3830.62
2019-04-25T10:39:23.570Z,3915.00
2019-04-25T10:40:25.067Z,3847.50
2019-04-25T10:41:24.450Z,3808.12
2019-04-25T10:42:23.900Z,3808.12
2019-04-25T10:43:23.909Z,3481.88
2019-04-25T10:44:24.512Z,3622.50
2019-04-25T10:45:25.826Z,3892.50
2019-04-25T10:46:24.450Z,3723.75
2019-04-25T10:47:23.597Z,3774.38
2019-04-25T10:48:24.033Z,3780.00
2019-04-25T10:49:23.865Z,3600.00
2019-04-25T10:50:23.828Z,3965.62
2019-04-25T10:51:23.974Z,4218.75
2019-04-25T10:52:23.479Z,4173.75
2019-04-25T10:53:25.200Z,3948.75
2019-04-25T10:54:23.334Z,3892.50
2019-04-25T10:55:23.486Z,3999.38
2019-04-25T10:56:24.320Z,4207.50
2019-04-25T10:57:24.964Z,3774.38
2019-04-25T10:58:24.542Z,3960.00
2019-04-25T10:59:23.660Z,4072.50
2019-04-25T11:00:24.133Z,4207.50
2019-04-25T11:01:24.422Z,4179.38
2019-04-25T11:02:23.643Z,4100.62
2019-04-25T11:03:24.144Z,3763.12
2019-04-25T11:04:23.558Z,3515.62
2019-04-25T11:05:23.954Z,3954.38
2019-04-25T11:06:23.393Z,3937.50
2019-04-25T11:07:23.527Z,3903.75
2019-04-25T11:08:24.500Z,3920.62
2019-04-25T11:09:24.278Z,3628.12
2019-04-25T11:10:24.504Z,3611.25
2019-04-25T11:11:24.142Z,3234.38
2019-04-25T11:12:23.567Z,3161.25
2019-04-25T11:13:25.914Z,3656.25
2019-04-25T11:14:23.890Z,3825.00
2019-04-25T11:15:23.474Z,3639.38
2019-04-25T11:16:24.217Z,3735.00
2019-04-25T11:17:24.270Z,4038.75
2019-04-25T11:18:23.833Z,4140.00
2019-04-25T11:19:23.925Z,4241.25
2019-04-25T11:20:23.261Z,4455.00
2019-04-25T11:21:24.300Z,4376.25
2019-04-25T11:22:24.008Z,4044.38
2019-04-25T11:23:23.430Z,3802.50
2019-04-25T11:24:23.721Z,3948.75
2019-04-25T11:25:24.015Z,4123.12
2019-04-25T11:26:23.049Z,4117.50
2019-04-25T11:27:23.958Z,3926.25
2019-04-25T11:28:23.466Z,4111.88
2019-04-25T11:29:24.004Z,4410.00
2019-04-25T11:30:23.024Z,4111.88
2019-04-25T11:31:23.498Z,3673.12
2019-04-25T11:32:23.793Z,3465.00
2019-04-25T11:33:24.562Z,3723.75
2019-04-25T11:34:24.475Z,4128.75
2019-04-25T11:35:24.167Z,4213.12
2019-04-25T11:36:24.801Z,4156.88
2019-04-25T11:37:23.899Z,4044.38
2019-04-25T11:38:23.730Z,3729.38
2019-04-25T11:39:23.936Z,3526.88
2019-04-25T11:40:23.443Z,3825.00
2019-04-25T11:41:24.241Z,4117.50
2019-04-25T11:42:23.373Z,4033.12
2019-04-25T11:43:22.919Z,3960.00
2019-04-25T11:44:24.468Z,3870.00
2019-04-25T11:45:23.087Z,3808.12
2019-04-25T11:46:24.184Z,3864.38
2019-04-25T11:47:24.287Z,3881.25
2019-04-25T11:48:23.835Z,3796.88
2019-04-25T11:49:23.866Z,3858.75
2019-04-25T11:50:22.854Z,3920.62
2019-04-25T11:51:24.033Z,3960.00
2019-04-25T11:52:28.223Z,3965.62
2019-04-25T11:53:25.061Z,3864.38
2019-04-25T11:54:24.286Z,3881.25
2019-04-25T11:55:23.894Z,3948.75
2019-04-25T11:56:24.116Z,3757.50
2019-04-25T11:57:23.335Z,3690.00
2019-04-25T11:58:23.541Z,3943.12
2019-04-25T11:59:23.504Z,3926.25
2019-04-25T12:00:24.451Z,3583.12
2019-04-25T12:01:24.184Z,3560.62
2019-04-25T12:02:23.952Z,3965.62
2019-04-25T12:03:24.590Z,4173.75
2019-04-25T12:04:23.940Z,4168.12
2019-04-25T12:05:23.522Z,4111.88
2019-04-25T12:06:24.309Z,4151.25
2019-04-25T12:07:23.703Z,4033.12
2019-04-25T12:08:24.279Z,3847.50
2019-04-25T12:09:24.135Z,3915.00
2019-04-25T12:10:24.060Z,3892.50
2019-04-25T12:11:23.509Z,3898.12
2019-04-25T12:12:23.629Z,3931.88
2019-04-25T12:13:24.289Z,3948.75
2019-04-25T12:14:23.586Z,3903.75
2019-04-25T12:15:24.127Z,3870.00
2019-04-25T12:16:22.637Z,3808.12
2019-04-25T12:17:23.421Z,3791.25
2019-04-25T12:18:22.626Z,3723.75
2019-04-25T12:19:33.102Z,3673.12
2019-04-25T12:20:23.603Z,3628.12
2019-04-25T12:21:23.952Z,3566.25
2019-04-25T12:22:23.821Z,3268.12
2019-04-25T12:23:23.381Z,3043.12
2019-04-25T12:24:23.864Z,3414.38
2019-04-25T12:25:23.699Z,3701.25
2019-04-25T12:26:24.263Z,3830.62
2019-04-25T12:27:22.530Z,3847.50
2019-04-25T12:28:23.529Z,3690.00
2019-04-25T12:29:24.301Z,3555.00
2019-04-25T12:30:36.747Z,3566.25
2019-04-25T12:31:24.043Z,3465.00
2019-04-25T12:32:22.522Z,3600.00
2019-04-25T12:33:23.912Z,3960.00
2019-04-25T12:34:24.210Z,3937.50
2019-04-25T12:35:24.109Z,3926.25
2019-04-25T12:36:23.916Z,3825.00
2019-04-25T12:37:23.548Z,3481.88
2019-04-25T12:38:22.559Z,3560.62
2019-04-25T12:39:24.159Z,3836.25
2019-04-25T12:40:24.231Z,3920.62
2019-04-25T12:41:22.485Z,3780.00
2019-04-25T12:42:24.087Z,3695.62
2019-04-25T12:43:23.963Z,3785.62
2019-04-25T12:44:22.396Z,3701.25